Time;durP1;ratioP1;P1;durP2;ratioP2;P2;SDS_P1;SDS_P2;PMS_P1;PMS_P2;Temp;Humidity;BMP_temperature;BMP_pressure;BME280_temperature;BME280_humidity;BME280_pressure;Samples;Min_cycle;Max_cycle;Signal;HPM_P1;HPM_P2
2023/10/27 00:00:23;;;;;;;6.75;6.15;;;;;;;;;;5024871;28;20334;-85
2023/10/27 00:02:50;;;;;;;7.20;6.53;;;;;;;;;;5029388;28;20208;-87
2023/10/27 00:05:19;;;;;;;10.18;7.20;;;;;;;;;;5032766;28;20206;-86
2023/10/27 00:07:46;;;;;;;7.20;6.47;;;;;;;;;;5032361;28;20651;-86
2023/10/27 00:10:14;;;;;;;7.00;6.30;;;;;;;;;;5032329;28;20206;-87
2023/10/27 00:12:41;;;;;;;8.48;7.47;;;;;;;;;;5032448;28;20202;-85
2023/10/27 00:15:10;;;;;;;6.55;5.85;;;;;;;;;;5026870;28;20199;-86
2023/10/27 00:17:37;;;;;;;7.03;6.32;;;;;;;;;;5023873;28;20286;-85
2023/10/27 00:20:06;;;;;;;5.38;4.88;;;;;;;;;;5031663;28;20615;-86
2023/10/27 00:22:35;;;;;;;5.25;4.75;;;;;;;;;;5033508;28;20202;-84
2023/10/27 00:25:03;;;;;;;4.95;4.47;;;;;;;;;;5049762;28;20199;-85
2023/10/27 00:27:30;;;;;;;4.70;4.25;;;;;;;;;;5052244;28;20202;-84
2023/10/27 00:29:58;;;;;;;4.38;4.05;;;;;;;;;;5043725;28;20225;-86
2023/10/27 00:32:25;;;;;;;3.70;3.40;;;;;;;;;;5030247;28;20229;-87
2023/10/27 00:34:53;;;;;;;3.88;3.40;;;;;;;;;;5034293;28;20314;-87
2023/10/27 00:37:20;;;;;;;3.95;3.65;;;;;;;;;;5034185;28;20226;-86
2023/10/27 00:39:49;;;;;;;3.35;3.05;;;;;;;;;;5035760;28;20313;-85
2023/10/27 00:42:16;;;;;;;3.63;3.33;;;;;;;;;;5035885;28;20294;-85
2023/10/27 00:44:44;;;;;;;3.47;3.17;;;;;;;;;;5021661;28;20230;-86
2023/10/27 00:47:12;;;;;;;4.07;3.67;;;;;;;;;;5018099;28;20226;-86
2023/10/27 00:49:39;;;;;;;5.13;4.70;;;;;;;;;;5033564;28;20284;-88
2023/10/27 00:52:07;;;;;;;4.55;4.10;;;;;;;;;;5029622;28;20699;-87
2023/10/27 00:54:35;;;;;;;3.20;2.90;;;;;;;;;;5027034;28;20297;-87
2023/10/27 00:57:06;;;;;;;4.00;3.70;;;;;;;;;;5032114;28;20270;-87
2023/10/27 00:59:35;;;;;;;3.70;3.40;;;;;;;;;;5031794;28;20280;-86
2023/10/27 01:02:02;;;;;;;3.58;3.25;;;;;;;;;;5019612;28;20203;-87
2023/10/27 01:04:30;;;;;;;4.38;3.97;;;;;;;;;;5027233;28;20236;-86
2023/10/27 01:06:58;;;;;;;5.78;5.25;;;;;;;;;;5030372;28;20293;-87
2023/10/27 01:09:25;;;;;;;6.80;5.70;;;;;;;;;;5030333;28;20289;-87
2023/10/27 01:11:53;;;;;;;6.03;5.10;;;;;;;;;;5022884;28;20695;-85
2023/10/27 01:14:22;;;;;;;5.65;5.15;;;;;;;;;;5019993;28;20229;-85
2023/10/27 01:16:49;;;;;;;5.97;5.38;;;;;;;;;;5030662;28;20224;-87
2023/10/27 01:19:17;;;;;;;4.82;4.40;;;;;;;;;;5027618;28;20205;-86
2023/10/27 01:21:44;;;;;;;5.15;4.63;;;;;;;;;;5024815;28;20226;-86
2023/10/27 01:24:13;;;;;;;5.85;5.35;;;;;;;;;;5013763;28;20226;-87
2023/10/27 01:26:40;;;;;;;4.35;3.95;;;;;;;;;;5027214;28;20293;-85
2023/10/27 01:29:08;;;;;;;3.65;3.35;;;;;;;;;;5016674;28;20205;-86
2023/10/27 01:31:35;;;;;;;3.78;3.47;;;;;;;;;;5012163;28;20661;-86
2023/10/27 01:34:03;;;;;;;3.58;3.28;;;;;;;;;;5016932;28;20242;-86
2023/10/27 01:36:30;;;;;;;3.75;3.13;;;;;;;;;;5030203;28;20367;-86
2023/10/27 01:38:58;;;;;;;3.85;3.55;;;;;;;;;;5026648;28;20226;-85
2023/10/27 01:41:26;;;;;;;3.67;3.38;;;;;;;;;;5026242;28;20241;-86
2023/10/27 01:43:54;;;;;;;3.17;2.97;;;;;;;;;;5021296;28;20514;-86
2023/10/27 01:46:21;;;;;;;4.00;3.63;;;;;;;;;;5017619;28;20198;-85
2023/10/27 01:48:49;;;;;;;5.07;4.60;;;;;;;;;;5018787;28;20293;-85
2023/10/27 01:51:16;;;;;;;4.50;4.10;;;;;;;;;;5020651;28;20242;-87
2023/10/27 01:53:44;;;;;;;4.53;4.13;;;;;;;;;;5023495;28;20249;-86
2023/10/27 01:56:12;;;;;;;7.90;5.50;;;;;;;;;;5024234;28;20318;-87
2023/10/27 01:58:44;;;;;;;4.35;3.95;;;;;;;;;;5020289;28;20699;-85
2023/10/27 02:01:12;;;;;;;4.22;3.80;;;;;;;;;;5026487;28;20226;-85
2023/10/27 02:03:40;;;;;;;4.72;4.38;;;;;;;;;;5026374;28;20229;-86
2023/10/27 02:06:07;;;;;;;3.70;3.40;;;;;;;;;;5032929;28;20202;-86
2023/10/27 02:08:35;;;;;;;4.47;4.07;;;;;;;;;;5029164;28;20701;-86
2023/10/27 02:11:03;;;;;;;7.10;4.75;;;;;;;;;;5034374;28;20198;-85
2023/10/27 02:13:30;;;;;;;5.10;4.60;;;;;;;;;;5034778;28;20312;-85
2023/10/27 02:16:00;;;;;;;6.28;5.68;;;;;;;;;;5032855;28;20585;-86
2023/10/27 02:18:27;;;;;;;3.92;3.65;;;;;;;;;;5034835;28;20202;-86
2023/10/27 02:20:55;;;;;;;4.43;4.00;;;;;;;;;;5028084;28;20226;-87
2023/10/27 02:23:22;;;;;;;4.05;3.65;;;;;;;;;;5034451;28;20710;-86
2023/10/27 02:25:50;;;;;;;3.60;3.30;;;;;;;;;;5034502;28;20210;-86
2023/10/27 02:28:17;;;;;;;4.32;3.92;;;;;;;;;;5032156;28;20237;-85
2023/10/27 02:30:45;;;;;;;4.60;4.20;;;;;;;;;;5028304;28;20205;-86
2023/10/27 02:33:15;;;;;;;5.40;4.90;;;;;;;;;;5031606;28;20222;-87
2023/10/27 02:35:42;;;;;;;7.57;6.88;;;;;;;;;;5034292;28;20229;-86
2023/10/27 02:38:10;;;;;;;5.38;4.90;;;;;;;;;;5034035;28;20229;-86
2023/10/27 02:40:38;;;;;;;5.22;4.72;;;;;;;;;;5032617;28;20314;-85
2023/10/27 02:43:05;;;;;;;4.40;4.00;;;;;;;;;;5032872;28;20689;-87
2023/10/27 02:45:33;;;;;;;3.65;3.28;;;;;;;;;;5034175;28;20680;-85
2023/10/27 02:48:00;;;;;;;4.05;3.40;;;;;;;;;;5033859;28;20290;-85
2023/10/27 02:50:31;;;;;;;3.92;3.63;;;;;;;;;;5033582;28;20199;-85
2023/10/27 02:52:58;;;;;;;3.95;3.65;;;;;;;;;;5030408;28;20313;-85
2023/10/27 02:55:26;;;;;;;3.90;3.53;;;;;;;;;;5033953;28;20289;-85
2023/10/27 02:57:53;;;;;;;3.00;2.80;;;;;;;;;;5030902;28;20293;-86
2023/10/27 03:00:21;;;;;;;3.80;3.13;;;;;;;;;;5032465;28;20293;-86
2023/10/27 03:02:49;;;;;;;3.72;2.97;;;;;;;;;;5030597;28;20226;-86
2023/10/27 03:05:17;;;;;;;3.92;3.63;;;;;;;;;;5031189;28;20206;-85
2023/10/27 03:07:45;;;;;;;3.20;2.90;;;;;;;;;;5033538;28;20209;-86
2023/10/27 03:10:12;;;;;;;3.20;2.95;;;;;;;;;;5032905;28;20229;-86
2023/10/27 03:12:39;;;;;;;3.75;3.45;;;;;;;;;;5032885;28;20237;-87
2023/10/27 03:15:08;;;;;;;3.80;3.50;;;;;;;;;;5034279;28;20204;-86
2023/10/27 03:17:36;;;;;;;5.63;5.13;;;;;;;;;;5031421;28;20269;-86
2023/10/27 03:20:04;;;;;;;6.53;5.75;;;;;;;;;;5028595;28;20209;-86
2023/10/27 03:22:32;;;;;;;7.13;6.50;;;;;;;;;;5010302;28;20712;-85
2023/10/27 03:25:03;;;;;;;6.50;5.82;;;;;;;;;;5019440;28;20223;-86
2023/10/27 03:27:32;;;;;;;6.35;5.63;;;;;;;;;;5019612;28;20233;-85
2023/10/27 03:30:00;;;;;;;7.45;6.22;;;;;;;;;;5024393;28;20199;-85
2023/10/27 03:32:28;;;;;;;5.63;5.13;;;;;;;;;;5018639;28;20294;-85
2023/10/27 03:34:55;;;;;;;6.47;5.88;;;;;;;;;;5018224;28;20226;-86
2023/10/27 03:37:22;;;;;;;5.10;4.50;;;;;;;;;;5015974;28;20290;-85
2023/10/27 03:39:51;;;;;;;4.30;3.88;;;;;;;;;;5025869;28;20198;-85
2023/10/27 03:42:19;;;;;;;3.50;3.20;;;;;;;;;;5018096;28;20215;-86
2023/10/27 03:44:47;;;;;;;3.17;2.88;;;;;;;;;;5020534;28;20226;-86
2023/10/27 03:47:15;;;;;;;2.97;2.78;;;;;;;;;;5012909;28;20199;-87
2023/10/27 03:49:42;;;;;;;3.25;2.95;;;;;;;;;;5025634;28;20219;-86
2023/10/27 03:52:10;;;;;;;3.63;3.33;;;;;;;;;;5017660;28;20223;-86
2023/10/27 03:54:38;;;;;;;2.83;2.63;;;;;;;;;;5019036;28;20294;-86
2023/10/27 03:57:06;;;;;;;3.17;2.90;;;;;;;;;;5024979;28;20586;-86
2023/10/27 03:59:35;;;;;;;4.28;3.88;;;;;;;;;;5024330;28;20282;-85
2023/10/27 04:02:02;;;;;;;2.92;2.72;;;;;;;;;;5019273;28;20226;-87
2023/10/27 04:04:29;;;;;;;2.72;2.53;;;;;;;;;;5017745;28;20608;-84
2023/10/27 04:06:57;;;;;;;2.85;2.65;;;;;;;;;;5020169;28;20209;-85
2023/10/27 04:09:24;;;;;;;4.53;3.90;;;;;;;;;;5024120;28;20607;-87
2023/10/27 04:11:52;;;;;;;4.82;4.22;;;;;;;;;;5020246;28;20635;-85
2023/10/27 04:14:19;;;;;;;3.63;3.33;;;;;;;;;;5018182;28;20306;-85
2023/10/27 04:16:48;;;;;;;2.83;2.63;;;;;;;;;;5020955;28;20213;-86
2023/10/27 04:19:16;;;;;;;4.25;3.88;;;;;;;;;;5013523;28;20285;-86
2023/10/27 04:21:43;;;;;;;3.53;3.22;;;;;;;;;;5021070;28;20230;-85
2023/10/27 04:24:11;;;;;;;5.50;4.45;;;;;;;;;;5024534;28;20301;-86
2023/10/27 04:26:38;;;;;;;3.75;3.03;;;;;;;;;;5021886;28;20277;-87
2023/10/27 04:29:06;;;;;;;4.05;3.70;;;;;;;;;;5019314;28;20652;-85
2023/10/27 04:31:34;;;;;;;4.47;4.07;;;;;;;;;;5023467;28;20249;-86
2023/10/27 04:34:03;;;;;;;5.00;4.47;;;;;;;;;;5019267;28;20224;-86
2023/10/27 04:36:31;;;;;;;4.18;3.78;;;;;;;;;;5021017;28;20201;-87
2023/10/27 04:38:58;;;;;;;3.80;3.45;;;;;;;;;;5025349;28;20373;-86
2023/10/27 04:41:27;;;;;;;3.75;3.35;;;;;;;;;;5017251;28;20203;-85
2023/10/27 04:43:55;;;;;;;2.97;2.78;;;;;;;;;;5020138;28;20229;-86
2023/10/27 04:46:22;;;;;;;3.50;3.20;;;;;;;;;;5017520;28;20582;-85
2023/10/27 04:48:50;;;;;;;3.40;3.10;;;;;;;;;;5020290;28;20206;-85
2023/10/27 04:51:20;;;;;;;3.88;3.58;;;;;;;;;;5012823;28;20213;-86
2023/10/27 04:53:48;;;;;;;3.15;2.85;;;;;;;;;;5013647;28;20281;-85
2023/10/27 04:56:16;;;;;;;2.90;2.70;;;;;;;;;;5015879;28;20202;-85
2023/10/27 04:58:44;;;;;;;2.75;2.55;;;;;;;;;;5021175;28;20203;-86
2023/10/27 05:01:12;;;;;;;4.68;4.28;;;;;;;;;;5017979;28;20198;-87
2023/10/27 05:03:40;;;;;;;3.33;2.83;;;;;;;;;;5021463;28;20249;-85
2023/10/27 05:06:08;;;;;;;4.47;3.22;;;;;;;;;;5032452;28;20717;-86
2023/10/27 05:08:38;;;;;;;3.60;3.30;;;;;;;;;;5041721;28;20207;-84
2023/10/27 05:11:05;;;;;;;3.92;3.63;;;;;;;;;;5041692;28;20222;-84
2023/10/27 05:13:33;;;;;;;4.18;3.55;;;;;;;;;;5039973;28;20718;-86
2023/10/27 05:16:01;;;;;;;4.13;3.60;;;;;;;;;;5031182;28;20209;-86
2023/10/27 05:18:28;;;;;;;4.35;3.95;;;;;;;;;;5028945;28;20282;-85
2023/10/27 05:20:56;;;;;;;4.40;4.00;;;;;;;;;;5017122;28;20209;-86
2023/10/27 05:23:23;;;;;;;5.65;4.95;;;;;;;;;;5023038;28;20225;-87
2023/10/27 05:25:53;;;;;;;6.18;5.35;;;;;;;;;;5029825;28;20208;-84
2023/10/27 05:28:20;;;;;;;4.13;3.72;;;;;;;;;;5023802;28;20625;-86
2023/10/27 05:30:50;;;;;;;4.43;3.53;;;;;;;;;;5033807;28;20285;-86
2023/10/27 05:33:18;;;;;;;5.85;5.25;;;;;;;;;;5013908;28;20708;-86
2023/10/27 05:35:45;;;;;;;7.07;5.85;;;;;;;;;;5039149;28;20233;-87
2023/10/27 05:38:14;;;;;;;4.78;4.32;;;;;;;;;;5031732;28;20220;-86
2023/10/27 05:40:41;;;;;;;7.07;5.55;;;;;;;;;;5040723;28;20301;-87
2023/10/27 05:43:11;;;;;;;4.93;4.10;;;;;;;;;;5039258;28;20317;-84
2023/10/27 05:45:39;;;;;;;4.88;4.20;;;;;;;;;;5037024;28;20222;-86
2023/10/27 05:48:06;;;;;;;6.10;5.30;;;;;;;;;;5038972;28;20582;-86
2023/10/27 05:50:34;;;;;;;6.45;5.80;;;;;;;;;;5039050;28;20229;-87
2023/10/27 05:53:01;;;;;;;5.05;4.55;;;;;;;;;;5040418;28;20277;-86
2023/10/27 05:55:29;;;;;;;4.40;3.67;;;;;;;;;;5041749;28;20703;-86
2023/10/27 05:57:56;;;;;;;4.28;3.90;;;;;;;;;;5033725;28;20198;-87
2023/10/27 06:00:25;;;;;;;4.32;3.92;;;;;;;;;;5038844;28;20201;-87
2023/10/27 06:02:53;;;;;;;3.95;3.47;;;;;;;;;;5029632;28;20792;-87
2023/10/27 06:05:20;;;;;;;3.30;3.00;;;;;;;;;;5034856;28;20644;-87
2023/10/27 06:07:48;;;;;;;2.83;2.63;;;;;;;;;;5035340;28;20205;-87
2023/10/27 06:10:15;;;;;;;2.50;2.30;;;;;;;;;;5032070;28;20224;-87
2023/10/27 06:12:43;;;;;;;2.25;2.05;;;;;;;;;;5035120;28;20190;-87
2023/10/27 06:15:11;;;;;;;3.63;3.33;;;;;;;;;;5034733;28;20206;-86
2023/10/27 06:17:39;;;;;;;3.20;2.90;;;;;;;;;;5034715;28;20209;-86
2023/10/27 06:20:08;;;;;;;4.90;4.43;;;;;;;;;;5031984;28;20297;-87
2023/10/27 06:22:36;;;;;;;5.32;4.80;;;;;;;;;;5032695;28;20202;-86
2023/10/27 06:25:04;;;;;;;4.07;3.67;;;;;;;;;;5034822;28;20205;-86
2023/10/27 06:27:32;;;;;;;3.63;3.30;;;;;;;;;;5034739;28;20195;-87
2023/10/27 06:29:59;;;;;;;5.72;5.15;;;;;;;;;;5034094;28;20730;-87
2023/10/27 06:32:26;;;;;;;4.05;3.65;;;;;;;;;;5028471;28;20204;-86
2023/10/27 06:34:55;;;;;;;2.85;2.65;;;;;;;;;;5033456;28;20215;-86
2023/10/27 06:37:23;;;;;;;2.78;2.58;;;;;;;;;;5033892;28;20209;-86
2023/10/27 06:39:54;;;;;;;3.25;3.03;;;;;;;;;;5033702;28;20205;-86
2023/10/27 06:42:22;;;;;;;2.85;2.65;;;;;;;;;;5025493;28;20233;-86
2023/10/27 06:44:51;;;;;;;2.83;2.63;;;;;;;;;;5033604;28;20534;-86
2023/10/27 06:47:19;;;;;;;2.90;2.70;;;;;;;;;;5033874;28;20238;-87
2023/10/27 06:49:47;;;;;;;3.03;2.75;;;;;;;;;;5033946;28;20683;-86
2023/10/27 06:52:15;;;;;;;3.42;3.13;;;;;;;;;;5033726;28;20678;-85
2023/10/27 06:54:43;;;;;;;3.25;2.95;;;;;;;;;;5033898;28;20211;-86
2023/10/27 06:57:11;;;;;;;2.80;2.58;;;;;;;;;;5028666;28;20293;-86
2023/10/27 06:59:39;;;;;;;3.30;3.00;;;;;;;;;;5023703;28;20203;-85
2023/10/27 07:02:06;;;;;;;3.70;3.40;;;;;;;;;;5027447;28;20203;-86
2023/10/27 07:04:34;;;;;;;4.03;3.63;;;;;;;;;;5033613;28;20617;-87
2023/10/27 07:07:05;;;;;;;3.95;3.58;;;;;;;;;;5033443;28;20585;-86
2023/10/27 07:09:34;;;;;;;6.07;5.13;;;;;;;;;;5033643;28;20678;-86
2023/10/27 07:12:03;;;;;;;5.43;4.88;;;;;;;;;;5027027;28;20198;-86
2023/10/27 07:14:31;;;;;;;6.03;5.53;;;;;;;;;;5030385;28;20269;-85
2023/10/27 07:17:00;;;;;;;5.55;4.38;;;;;;;;;;5033756;28;20684;-85
2023/10/27 07:19:27;;;;;;;4.00;3.60;;;;;;;;;;5033105;28;20202;-87
2023/10/27 07:21:55;;;;;;;6.32;4.82;;;;;;;;;;5026960;28;20627;-85
2023/10/27 07:24:22;;;;;;;5.15;4.45;;;;;;;;;;5033358;28;20314;-85
2023/10/27 07:26:51;;;;;;;4.30;3.90;;;;;;;;;;5033295;28;20206;-87
2023/10/27 07:29:19;;;;;;;4.25;3.67;;;;;;;;;;5023638;28;20202;-86
2023/10/27 07:31:46;;;;;;;6.15;5.50;;;;;;;;;;5017166;28;20656;-86
2023/10/27 07:34:14;;;;;;;6.45;5.78;;;;;;;;;;5023516;28;20227;-85
2023/10/27 07:36:41;;;;;;;6.57;5.88;;;;;;;;;;5033035;28;20233;-86
2023/10/27 07:39:09;;;;;;;6.80;5.80;;;;;;;;;;5033394;28;20205;-85
2023/10/27 07:41:37;;;;;;;9.77;7.60;;;;;;;;;;5032745;28;20769;-86
2023/10/27 07:44:07;;;;;;;6.32;5.40;;;;;;;;;;5032928;28;20232;-85
2023/10/27 07:46:34;;;;;;;8.98;8.07;;;;;;;;;;5032926;28;20194;-86
2023/10/27 07:49:02;;;;;;;10.10;8.40;;;;;;;;;;5030493;28;20234;-86
2023/10/27 07:51:29;;;;;;;9.63;7.10;;;;;;;;;;5034311;28;20237;-86
2023/10/27 07:53:56;;;;;;;8.73;7.55;;;;;;;;;;5028861;28;20210;-87
2023/10/27 07:56:24;;;;;;;8.35;6.57;;;;;;;;;;5033372;28;20190;-86
2023/10/27 07:58:52;;;;;;;10.10;6.57;;;;;;;;;;5028093;28;20195;-86
2023/10/27 08:01:21;;;;;;;8.07;6.78;;;;;;;;;;5023217;28;20274;-86
2023/10/27 08:03:48;;;;;;;7.15;5.70;;;;;;;;;;5026416;28;20228;-87
2023/10/27 08:06:16;;;;;;;7.35;5.68;;;;;;;;;;5032452;28;20201;-86
2023/10/27 08:08:43;;;;;;;6.28;4.82;;;;;;;;;;5027973;28;20665;-85
2023/10/27 08:11:18;;;;;;;7.57;5.60;;;;;;;;;;5033006;28;20202;-87
2023/10/27 08:13:45;;;;;;;6.85;6.15;;;;;;;;;;5033317;28;20222;-86
2023/10/27 08:16:13;;;;;;;6.85;5.78;;;;;;;;;;5033711;28;20290;-87
2023/10/27 08:18:42;;;;;;;6.82;6.15;;;;;;;;;;5033171;28;20229;-86
2023/10/27 08:21:10;;;;;;;7.72;6.88;;;;;;;;;;5027739;28;20208;-85
2023/10/27 08:23:36;;;;;;;7.90;7.07;;;;;;;;;;5032711;28;20224;-85
2023/10/27 08:26:04;;;;;;;7.63;6.82;;;;;;;;;;5033124;28;20202;-85
2023/10/27 08:28:31;;;;;;;9.52;6.60;;;;;;;;;;5032791;28;20222;-87
2023/10/27 08:30:59;;;;;;;7.40;5.40;;;;;;;;;;5032549;28;20225;-86
2023/10/27 08:33:26;;;;;;;7.53;6.50;;;;;;;;;;5025754;28;20220;-87
2023/10/27 08:36:00;;;;;;;6.90;5.68;;;;;;;;;;5032241;28;20229;-85
2023/10/27 08:38:29;;;;;;;5.68;5.07;;;;;;;;;;5022101;28;20199;-85
2023/10/27 08:40:56;;;;;;;6.30;5.70;;;;;;;;;;5025540;28;20277;-87
2023/10/27 08:43:24;;;;;;;7.68;6.55;;;;;;;;;;5032123;28;20226;-85
2023/10/27 08:45:53;;;;;;;9.10;6.60;;;;;;;;;;5029254;28;20668;-85
2023/10/27 08:48:20;;;;;;;7.43;6.72;;;;;;;;;;5028046;28;20206;-86
2023/10/27 08:50:49;;;;;;;9.75;6.68;;;;;;;;;;5032144;28;20199;-86
2023/10/27 08:53:18;;;;;;;6.25;5.65;;;;;;;;;;5033152;28;20214;-86
2023/10/27 08:55:45;;;;;;;7.35;5.68;;;;;;;;;;5033151;28;20589;-86
2023/10/27 08:58:13;;;;;;;6.13;5.53;;;;;;;;;;5029595;28;20209;-86
2023/10/27 09:00:40;;;;;;;5.45;4.90;;;;;;;;;;5030640;28;20255;-86
2023/10/27 09:03:17;;;;;;;5.00;4.38;;;;;;;;;;5023502;28;20222;-86
2023/10/27 09:05:45;;;;;;;6.03;4.50;;;;;;;;;;5027140;28;20219;-87
2023/10/27 09:08:13;;;;;;;6.10;4.80;;;;;;;;;;5031329;28;20202;-86
2023/10/27 09:10:41;;;;;;;7.22;4.10;;;;;;;;;;5031357;28;20201;-85
2023/10/27 09:13:10;;;;;;;5.72;4.30;;;;;;;;;;5032030;28;20660;-87
2023/10/27 09:15:45;;;;;;;5.53;3.78;;;;;;;;;;5032794;28;20565;-87
2023/10/27 09:18:13;;;;;;;4.72;3.55;;;;;;;;;;5032448;28;20585;-86
2023/10/27 09:20:51;;;;;;;6.38;4.50;;;;;;;;;;5033360;28;20210;-86
2023/10/27 09:23:20;;;;;;;4.68;4.28;;;;;;;;;;5032252;28;20218;-86
2023/10/27 09:25:49;;;;;;;5.13;4.35;;;;;;;;;;5029227;28;20229;-86
2023/10/27 09:28:16;;;;;;;4.30;3.90;;;;;;;;;;5032801;28;20281;-86
2023/10/27 09:30:45;;;;;;;4.75;4.22;;;;;;;;;;5033046;28;20678;-86
2023/10/27 09:33:16;;;;;;;4.93;3.90;;;;;;;;;;5024927;28;20775;-85
2023/10/27 09:35:45;;;;;;;6.68;4.85;;;;;;;;;;5032144;28;20194;-85
2023/10/27 09:38:13;;;;;;;4.20;3.85;;;;;;;;;;5027161;28;20241;-85
2023/10/27 09:40:42;;;;;;;4.63;4.13;;;;;;;;;;5031969;28;20198;-86
2023/10/27 09:43:19;;;;;;;8.00;5.25;;;;;;;;;;5023929;28;20231;-85
2023/10/27 09:45:54;;;;;;;3.75;3.45;;;;;;;;;;5022897;28;20215;-85
2023/10/27 09:48:26;;;;;;;4.68;4.13;;;;;;;;;;5023411;28;20204;-85
2023/10/27 09:51:00;;;;;;;5.13;4.25;;;;;;;;;;5040351;28;20226;-87
2023/10/27 09:53:30;;;;;;;3.40;3.08;;;;;;;;;;5048658;28;20354;-85
2023/10/27 09:56:00;;;;;;;4.40;3.40;;;;;;;;;;5043738;28;20278;-84
2023/10/27 09:58:31;;;;;;;4.32;3.92;;;;;;;;;;5033397;28;20739;-86
2023/10/27 10:00:59;;;;;;;2.95;2.67;;;;;;;;;;5033960;28;20679;-86
2023/10/27 10:03:27;;;;;;;3.83;3.00;;;;;;;;;;5027169;28;20214;-85
2023/10/27 10:06:23;;;;;;;3.85;3.13;;;;;;;;;;5034066;28;20317;-87
2023/10/27 10:09:11;;;;;;;4.00;2.88;;;;;;;;;;4984809;28;20211;-86
2023/10/27 10:11:55;;;;;;;4.63;3.05;;;;;;;;;;5032642;28;20238;-86
2023/10/27 10:14:50;;;;;;;3.58;2.35;;;;;;;;;;5025248;28;20229;-87
2023/10/27 10:17:40;;;;;;;3.15;2.42;;;;;;;;;;5029222;28;20207;-87
2023/10/27 10:20:09;;;;;;;4.57;3.50;;;;;;;;;;5040198;28;20207;-85
2023/10/27 10:22:53;;;;;;;4.10;3.20;;;;;;;;;;5038870;28;20198;-87
2023/10/27 10:25:29;;;;;;;3.72;3.35;;;;;;;;;;5035824;28;20306;-86
2023/10/27 10:28:25;;;;;;;3.55;2.88;;;;;;;;;;5029865;28;20279;-84
2023/10/27 10:31:35;;;;;;;3.78;3.03;;;;;;;;;;5031626;28;20206;-85
2023/10/27 10:34:12;;;;;;;6.38;4.18;;;;;;;;;;5022319;28;20668;-86
2023/10/27 10:36:41;;;;;;;3.95;3.38;;;;;;;;;;5035495;28;20195;-86
2023/10/27 10:39:11;;;;;;;4.68;4.05;;;;;;;;;;5034037;28;20208;-86
2023/10/27 10:42:06;;;;;;;5.18;4.13;;;;;;;;;;5028658;28;20203;-87
2023/10/27 10:44:33;;;;;;;4.15;3.75;;;;;;;;;;4987651;28;20416;-87
2023/10/27 10:47:04;;;;;;;5.72;4.32;;;;;;;;;;5022993;28;20225;-86
2023/10/27 10:49:32;;;;;;;3.90;3.60;;;;;;;;;;5032428;28;20198;-87
2023/10/27 10:52:02;;;;;;;3.60;2.97;;;;;;;;;;5035275;28;20191;-85
2023/10/27 10:54:31;;;;;;;6.32;3.63;;;;;;;;;;5026448;28;20223;-84
2023/10/27 10:57:09;;;;;;;4.80;3.10;;;;;;;;;;5035291;28;20256;-86
2023/10/27 10:59:37;;;;;;;2.75;2.35;;;;;;;;;;5035233;28;20205;-86
2023/10/27 11:02:07;;;;;;;4.50;2.83;;;;;;;;;;5027186;28;20567;-85
2023/10/27 11:04:36;;;;;;;4.95;3.10;;;;;;;;;;5034867;28;20222;-86
2023/10/27 11:07:05;;;;;;;3.22;2.95;;;;;;;;;;5035108;28;20726;-85
2023/10/27 11:09:33;;;;;;;5.00;3.30;;;;;;;;;;5034568;28;20208;-85
2023/10/27 11:12:02;;;;;;;2.45;2.17;;;;;;;;;;5029936;28;20206;-84
2023/10/27 11:14:40;;;;;;;1.90;1.80;;;;;;;;;;5030105;28;20222;-84
2023/10/27 11:17:11;;;;;;;1.88;1.73;;;;;;;;;;5031577;28;20202;-85
2023/10/27 11:19:53;;;;;;;2.15;1.95;;;;;;;;;;5027175;28;20244;-85
2023/10/27 11:22:24;;;;;;;2.72;2.03;;;;;;;;;;5033681;28;20260;-86
2023/10/27 11:24:52;;;;;;;2.78;1.90;;;;;;;;;;5030553;28;20341;-85
2023/10/27 11:27:26;;;;;;;1.20;1.02;;;;;;;;;;5025788;28;20218;-84
2023/10/27 11:29:59;;;;;;;1.20;1.13;;;;;;;;;;5030099;28;20197;-85
2023/10/27 11:32:27;;;;;;;1.80;1.70;;;;;;;;;;5025732;28;20682;-84
2023/10/27 11:34:58;;;;;;;2.53;1.58;;;;;;;;;;5029394;28;20222;-85
2023/10/27 11:37:26;;;;;;;2.88;2.42;;;;;;;;;;5021752;28;20224;-86
2023/10/27 11:39:54;;;;;;;1.58;1.48;;;;;;;;;;5030153;28;20194;-85
2023/10/27 11:42:21;;;;;;;0.95;0.95;;;;;;;;;;5030215;28;20684;-86
2023/10/27 11:44:49;;;;;;;1.05;1.02;;;;;;;;;;5029478;28;20312;-85
2023/10/27 11:47:17;;;;;;;0.93;0.93;;;;;;;;;;5021583;28;20310;-86
2023/10/27 11:49:46;;;;;;;0.95;0.90;;;;;;;;;;5029530;28;20642;-86
2023/10/27 11:52:14;;;;;;;0.98;0.80;;;;;;;;;;5020848;28;20241;-86
2023/10/27 11:54:42;;;;;;;0.65;0.65;;;;;;;;;;5030520;28;20218;-85
2023/10/27 11:57:09;;;;;;;1.63;0.90;;;;;;;;;;5023371;28;20204;-85
2023/10/27 11:59:37;;;;;;;0.57;0.57;;;;;;;;;;5027860;28;20656;-85
2023/10/27 12:02:04;;;;;;;1.55;0.75;;;;;;;;;;5023090;28;20207;-87
2023/10/27 12:04:32;;;;;;;0.70;0.70;;;;;;;;;;5031983;28;20220;-87
2023/10/27 12:07:01;;;;;;;0.55;0.55;;;;;;;;;;5027729;28;20222;-85
2023/10/27 12:09:28;;;;;;;0.60;0.60;;;;;;;;;;5031830;28;20285;-86
2023/10/27 12:11:55;;;;;;;0.52;0.52;;;;;;;;;;5024481;28;20212;-86
2023/10/27 12:14:23;;;;;;;0.20;0.20;;;;;;;;;;5023281;28;20214;-86
2023/10/27 12:16:51;;;;;;;0.45;0.40;;;;;;;;;;5020960;28;20198;-86
2023/10/27 12:19:19;;;;;;;0.30;0.30;;;;;;;;;;5031394;28;20209;-86
2023/10/27 12:21:46;;;;;;;0.20;0.20;;;;;;;;;;5027767;28;20260;-87
2023/10/27 12:24:15;;;;;;;0.38;0.38;;;;;;;;;;5031910;28;20222;-87
2023/10/27 12:26:44;;;;;;;0.40;0.40;;;;;;;;;;5031910;28;20249;-86
2023/10/27 12:29:12;;;;;;;0.30;0.30;;;;;;;;;;5031974;28;20206;-86
2023/10/27 12:31:39;;;;;;;0.25;0.25;;;;;;;;;;5029746;28;20199;-86
2023/10/27 12:34:08;;;;;;;0.47;0.47;;;;;;;;;;5029288;28;20234;-86
2023/10/27 12:36:36;;;;;;;0.40;0.40;;;;;;;;;;5031976;28;20191;-87
2023/10/27 12:39:04;;;;;;;0.50;0.50;;;;;;;;;;5026838;28;20202;-86
2023/10/27 12:41:33;;;;;;;0.50;0.50;;;;;;;;;;5027860;28;20209;-85
2023/10/27 12:44:00;;;;;;;0.52;0.52;;;;;;;;;;4990277;28;1068975;-86
2023/10/27 12:46:28;;;;;;;0.40;0.40;;;;;;;;;;5025249;28;20223;-86
2023/10/27 12:48:56;;;;;;;0.40;0.40;;;;;;;;;;5020388;28;20679;-86
2023/10/27 12:51:23;;;;;;;1.48;0.60;;;;;;;;;;5032238;28;20202;-87
2023/10/27 12:53:51;;;;;;;0.68;0.68;;;;;;;;;;5031849;28;20316;-86
2023/10/27 12:56:18;;;;;;;0.45;0.45;;;;;;;;;;5031993;28;20217;-86
2023/10/27 12:58:47;;;;;;;0.38;0.38;;;;;;;;;;5032125;28;20610;-86
2023/10/27 13:01:15;;;;;;;0.30;0.30;;;;;;;;;;5031569;28;20660;-87
2023/10/27 13:03:43;;;;;;;0.50;0.50;;;;;;;;;;5031638;28;20625;-87
2023/10/27 13:06:15;;;;;;;1.98;0.75;;;;;;;;;;5032290;28;20739;-86
2023/10/27 13:08:43;;;;;;;0.80;0.80;;;;;;;;;;5031870;28;20663;-86
2023/10/27 13:11:11;;;;;;;0.40;0.40;;;;;;;;;;5031920;28;20201;-86
2023/10/27 13:13:39;;;;;;;0.40;0.40;;;;;;;;;;5031957;28;20218;-87
2023/10/27 13:16:14;;;;;;;0.52;0.50;;;;;;;;;;5023564;28;20582;-87
2023/10/27 13:18:41;;;;;;;0.63;0.60;;;;;;;;;;5032081;28;20228;-86
2023/10/27 13:21:15;;;;;;;0.60;0.60;;;;;;;;;;5031600;28;20281;-86
2023/10/27 13:23:42;;;;;;;0.80;0.80;;;;;;;;;;5032263;28;20257;-86
2023/10/27 13:26:10;;;;;;;0.63;0.63;;;;;;;;;;5036832;28;20237;-86
2023/10/27 13:28:38;;;;;;;0.70;0.70;;;;;;;;;;5042933;28;20289;-88
2023/10/27 13:31:06;;;;;;;0.82;0.82;;;;;;;;;;5035333;28;20198;-88
2023/10/27 13:33:35;;;;;;;0.60;0.60;;;;;;;;;;5032042;28;20222;-89
2023/10/27 13:36:08;;;;;;;0.63;0.63;;;;;;;;;;5027961;28;20199;-87
2023/10/27 13:38:36;;;;;;;0.65;0.65;;;;;;;;;;5028034;28;20202;-88
2023/10/27 13:41:04;;;;;;;0.70;0.68;;;;;;;;;;5031462;28;20198;-87
2023/10/27 13:43:32;;;;;;;0.88;0.88;;;;;;;;;;5032603;28;20234;-88
2023/10/27 13:46:00;;;;;;;0.70;0.70;;;;;;;;;;5031759;28;20203;-87
2023/10/27 13:48:28;;;;;;;0.60;0.60;;;;;;;;;;5028400;28;20228;-88
2023/10/27 13:50:57;;;;;;;0.88;0.70;;;;;;;;;;5027507;28;20222;-86
2023/10/27 13:53:26;;;;;;;0.60;0.60;;;;;;;;;;5035790;28;20715;-88
2023/10/27 13:55:53;;;;;;;0.47;0.47;;;;;;;;;;5031663;28;20194;-86
2023/10/27 13:58:20;;;;;;;0.65;0.65;;;;;;;;;;5031018;28;20823;-86
2023/10/27 14:00:49;;;;;;;0.55;0.55;;;;;;;;;;5031019;28;20809;-87
2023/10/27 14:03:16;;;;;;;0.45;0.45;;;;;;;;;;5035079;28;20230;-87
2023/10/27 14:05:44;;;;;;;0.50;0.50;;;;;;;;;;5032086;28;20205;-88
2023/10/27 14:08:12;;;;;;;0.80;0.80;;;;;;;;;;5035583;28;20256;-88
2023/10/27 14:10:40;;;;;;;0.60;0.60;;;;;;;;;;5034468;28;20233;-87
2023/10/27 14:13:08;;;;;;;0.55;0.55;;;;;;;;;;5034360;28;20214;-87
2023/10/27 14:15:35;;;;;;;0.57;0.57;;;;;;;;;;5030973;28;20265;-87
2023/10/27 14:18:05;;;;;;;0.60;0.60;;;;;;;;;;5034761;28;20229;-87
2023/10/27 14:20:33;;;;;;;0.63;0.63;;;;;;;;;;5034476;28;20194;-88
2023/10/27 14:23:00;;;;;;;0.60;0.60;;;;;;;;;;5034779;28;20317;-87
2023/10/27 14:25:31;;;;;;;0.52;0.52;;;;;;;;;;5035102;28;20237;-86
2023/10/27 14:27:59;;;;;;;0.50;0.50;;;;;;;;;;5034833;28;20226;-86
2023/10/27 14:30:26;;;;;;;0.50;0.50;;;;;;;;;;5034960;28;20653;-88
2023/10/27 14:32:54;;;;;;;0.63;0.63;;;;;;;;;;5044168;28;20232;-85
2023/10/27 14:35:22;;;;;;;0.30;0.30;;;;;;;;;;5055324;28;20194;-84
2023/10/27 14:37:53;;;;;;;1.45;1.27;;;;;;;;;;5059318;28;20199;-84
2023/10/27 14:40:21;;;;;;;8.07;7.30;;;;;;;;;;5043762;28;20241;-86
2023/10/27 14:42:50;;;;;;;3.00;2.70;;;;;;;;;;5036809;28;20202;-86
2023/10/27 14:45:18;;;;;;;3.50;3.20;;;;;;;;;;5036178;28;20289;-86
2023/10/27 14:47:46;;;;;;;1.85;1.75;;;;;;;;;;5035029;28;20232;-86
2023/10/27 14:50:13;;;;;;;1.42;1.33;;;;;;;;;;5034885;28;20216;-85
2023/10/27 14:52:42;;;;;;;1.63;1.52;;;;;;;;;;5032369;28;20248;-86